Time;durP1;ratioP1;P1;durP2;ratioP2;P2;SDS_P1;SDS_P2;PMS_P1;PMS_P2;Temp;Humidity;BMP_temperature;BMP_pressure;BME280_temperature;BME280_humidity;BME280_pressure;Samples;Min_cycle;Max_cycle;Signal;HPM_P1;HPM_P2
2022/03/15 00:01:38;;;;;;;34.33;16.93;;;;;;;5.00;99.15;102666.03;4993685;28;20289;-94
2022/03/15 00:04:05;;;;;;;40.00;16.80;;;;;;;5.01;99.94;102666.88;4976543;28;20104;-93
2022/03/15 00:06:40;;;;;;;31.10;16.88;;;;;;;5.04;99.01;102674.47;4976788;28;20034;-93
2022/03/15 00:09:10;;;;;;;36.30;16.65;;;;;;;4.99;98.56;102669.69;4993504;28;20092;-93
2022/03/15 00:11:40;;;;;;;33.20;16.80;;;;;;;4.90;98.25;102654.81;4993531;28;20027;-93
2022/03/15 00:14:14;;;;;;;31.27;14.97;;;;;;;4.83;98.08;102656.50;4992777;28;20384;-92
2022/03/15 00:16:46;;;;;;;31.08;14.32;;;;;;;4.77;97.99;102663.34;4993868;28;20096;-93
2022/03/15 00:19:17;;;;;;;29.42;14.52;;;;;;;4.72;98.13;102660.34;4993705;28;20037;-93
2022/03/15 00:21:42;;;;;;;33.38;15.43;;;;;;;4.69;98.21;102661.53;4976219;28;20031;-92
2022/03/15 00:24:16;;;;;;;28.50;14.80;;;;;;;4.71;98.65;102669.31;4994540;28;20033;-93
2022/03/15 00:26:42;;;;;;;32.95;15.05;;;;;;;4.57;99.01;102651.47;4993067;28;20466;-92
2022/03/15 00:29:18;;;;;;;;;;;;;;;;;;;;;
2022/03/15 00:31:46;;;;;;;33.20;14.90;;;;;;;4.51;98.95;102659.13;4976433;28;20253;-92
2022/03/15 00:34:12;;;;;;;27.80;14.98;;;;;;;4.43;99.39;102647.69;4990924;28;20433;-94
2022/03/15 00:36:39;;;;;;;32.65;16.63;;;;;;;4.42;99.65;102657.50;4992813;28;20042;-94
2022/03/15 00:39:05;;;;;;;39.20;15.83;;;;;;;4.37;99.66;102667.81;4992053;28;20118;-93
2022/03/15 00:41:31;;;;;;;28.65;15.00;;;;;;;4.36;100.00;102664.34;4993144;28;20050;-93
2022/03/15 00:44:00;;;;;;;31.65;15.45;;;;;;;4.32;99.98;102673.63;4992188;28;20050;-95
2022/03/15 00:46:25;;;;;;;31.85;15.48;;;;;;;4.35;99.81;102678.59;4974738;28;20031;-93
2022/03/15 00:48:58;;;;;;;34.63;16.20;;;;;;;4.29;100.00;102668.66;4992411;28;20490;-93
2022/03/15 00:51:29;;;;;;;34.15;16.30;;;;;;;4.42;100.00;102677.91;4992894;28;20113;-94
2022/03/15 00:54:00;;;;;;;29.70;15.80;;;;;;;4.33;100.00;102659.38;4992463;28;20034;-94
2022/03/15 00:56:34;;;;;;;37.57;17.00;;;;;;;4.38;100.00;102659.66;4991860;28;20034;-94
2022/03/15 00:59:03;;;;;;;36.83;15.83;;;;;;;4.40;100.00;102655.00;4991991;28;20436;-92
2022/03/15 01:01:29;;;;;;;33.95;16.20;;;;;;;4.48;99.99;102666.59;4992216;28;20045;-94
2022/03/15 01:04:07;;;;;;;37.25;15.68;;;;;;;4.37;99.85;102642.09;4992325;28;20034;-92
2022/03/15 01:06:32;;;;;;;34.63;16.48;;;;;;;4.40;99.79;102646.22;4992199;28;20125;-94
2022/03/15 01:08:57;;;;;;;31.63;16.03;;;;;;;4.47;100.00;102654.34;4991453;28;20565;-94
2022/03/15 01:11:23;;;;;;;33.13;15.82;;;;;;;4.51;99.90;102655.66;4991594;28;20037;-93
2022/03/15 01:13:49;;;;;;;32.07;16.30;;;;;;;4.48;100.00;102648.03;4974561;28;20026;-94
2022/03/15 01:16:24;;;;;;;26.30;15.23;;;;;;;4.57;99.87;102662.09;4993117;28;20042;-93
2022/03/15 01:18:49;;;;;;;30.75;15.77;;;;;;;4.49;99.45;102653.16;4994888;28;20073;-94
2022/03/15 01:21:15;;;;;;;26.83;14.83;;;;;;;4.52;99.47;102658.13;4994381;28;20038;-92
2022/03/15 01:23:53;;;;;;;32.90;14.80;;;;;;;4.47;99.34;102646.38;4991464;28;20701;-92
2022/03/15 01:26:19;;;;;;;29.00;14.45;;;;;;;4.49;99.37;102647.03;4992437;28;20038;-94
2022/03/15 01:28:50;;;;;;;26.60;15.00;;;;;;;4.51;99.29;102653.81;4998104;28;20049;-91
2022/03/15 01:31:15;;;;;;;31.23;14.90;;;;;;;4.52;99.22;102649.34;4986215;28;20033;-94
2022/03/15 01:33:43;;;;;;;37.10;15.40;;;;;;;4.43;98.87;102626.47;4975268;28;20026;-92
2022/03/15 01:36:21;;;;;;;26.73;14.90;;;;;;;4.48;99.04;102637.41;4990421;28;20121;-92
2022/03/15 01:38:55;;;;;;;28.65;14.07;;;;;;;4.40;99.36;102628.47;4991945;28;20034;-93
2022/03/15 01:41:24;;;;;;;28.23;14.45;;;;;;;4.50;99.14;102646.03;4975495;28;20074;-94
2022/03/15 01:43:49;;;;;;;23.92;13.65;;;;;;;4.45;99.19;102633.28;4973619;28;20038;-93
2022/03/15 01:46:16;;;;;;;28.48;14.30;;;;;;;4.36;98.83;102611.25;4991541;28;20046;-93
2022/03/15 01:48:49;;;;;;;27.30;13.63;;;;;;;4.32;99.09;102607.28;4992530;28;20485;-93
2022/03/15 01:51:17;;;;;;;23.87;14.03;;;;;;;4.39;99.29;102629.47;4991652;28;20308;-93
2022/03/15 01:53:49;;;;;;;24.92;14.30;;;;;;;4.28;98.91;102618.41;4989676;28;20026;-94
2022/03/15 01:56:24;;;;;;;22.70;13.18;;;;;;;4.27;98.92;102611.44;4991469;28;20501;-94
2022/03/15 01:58:51;;;;;;;30.67;14.88;;;;;;;4.33;99.63;102616.91;4990805;28;20030;-93
2022/03/15 02:01:23;;;;;;;33.60;14.85;;;;;;;4.33;99.86;102603.63;4991278;28;20109;-93
2022/03/15 02:03:58;;;;;;;26.13;13.73;;;;;;;4.40;98.83;102612.53;4991950;28;20037;-93
2022/03/15 02:06:29;;;;;;;28.35;12.95;;;;;;;4.41;98.63;102621.34;4990652;28;20022;-94
2022/03/15 02:08:57;;;;;;;26.83;13.50;;;;;;;4.37;98.72;102623.53;4993932;28;20030;-95
2022/03/15 02:11:28;;;;;;;32.60;13.90;;;;;;;4.34;98.86;102623.00;5017476;23;20065;-93
2022/03/15 02:13:53;;;;;;;25.02;13.65;;;;;;;4.31;98.71;102623.34;4983931;28;20081;-94
2022/03/15 02:16:25;;;;;;;23.33;13.00;;;;;;;4.18;98.74;102605.34;4972928;28;20027;-95
2022/03/15 02:18:58;;;;;;;29.40;13.82;;;;;;;4.20;99.33;102606.81;4974020;28;20053;-94
2022/03/15 02:21:24;;;;;;;24.55;13.00;;;;;;;4.21;99.29;102600.50;4971714;28;20038;-94
2022/03/15 02:23:49;;;;;;;22.83;13.03;;;;;;;4.16;99.19;102581.63;4988178;28;20176;-93
2022/03/15 02:26:16;;;;;;;29.60;13.75;;;;;;;4.21;99.10;102594.38;4992184;28;20038;-93
2022/03/15 02:28:43;;;;;;;27.05;13.25;;;;;;;4.21;99.11;102581.09;4984368;28;20105;-94
2022/03/15 02:31:08;;;;;;;27.42;13.27;;;;;;;4.29;99.50;102586.38;4987988;28;20625;-93
2022/03/15 02:33:35;;;;;;;23.43;12.90;;;;;;;4.20;98.97;102574.97;4990143;28;20041;-94
2022/03/15 02:36:09;;;;;;;27.33;13.63;;;;;;;4.27;99.19;102580.41;4990627;28;20081;-95
2022/03/15 02:38:47;;;;;;;21.23;12.70;;;;;;;4.22;98.87;102572.97;4995271;28;20584;-93
2022/03/15 02:41:13;;;;;;;32.70;12.77;;;;;;;4.32;98.65;102590.50;5011828;28;20421;-92
2022/03/15 02:43:51;;;;;;;25.53;13.23;;;;;;;4.22;99.09;102572.97;4991727;28;20097;-93
2022/03/15 02:46:16;;;;;;;27.13;12.77;;;;;;;4.29;99.05;102583.72;4991120;28;20403;-94
2022/03/15 02:48:48;;;;;;;24.58;12.32;;;;;;;4.30;98.85;102589.84;4990168;28;20118;-94
2022/03/15 02:51:17;;;;;;;23.47;12.50;;;;;;;4.24;99.63;102575.44;4991080;28;20049;-93
2022/03/15 02:53:46;;;;;;;23.92;12.50;;;;;;;4.34;99.17;102573.44;4991422;28;20129;-93
2022/03/15 02:56:12;;;;;;;28.38;12.63;;;;;;;4.30;99.21;102556.19;4992291;28;20034;-92
2022/03/15 02:58:46;;;;;;;25.80;11.77;;;;;;;4.30;98.67;102558.00;4995212;28;20038;-94
2022/03/15 03:01:16;;;;;;;25.25;12.45;;;;;;;4.30;98.80;102555.34;4994077;28;20524;-94
2022/03/15 03:04:12;;;;;;;26.10;12.23;;;;;;;4.28;98.32;102550.22;4994185;28;20072;-94
2022/03/15 03:06:38;;;;;;;26.98;11.93;;;;;;;4.31;98.16;102549.03;4973440;28;20057;-92
2022/03/15 03:09:07;;;;;;;23.83;11.18;;;;;;;4.31;98.37;102554.34;4995509;28;20137;-92
2022/03/15 03:11:45;;;;;;;21.77;11.27;;;;;;;4.26;98.52;102541.59;4994087;28;20042;-93
2022/03/15 03:14:22;;;;;;;22.85;11.88;;;;;;;4.20;98.61;102523.75;4993026;28;20062;-94
2022/03/15 03:16:48;;;;;;;23.98;12.48;;;;;;;4.24;98.73;102536.47;4993262;28;20030;-94
2022/03/15 03:19:20;;;;;;;23.80;11.33;;;;;;;4.29;98.88;102541.25;4995318;28;20030;-93
2022/03/15 03:21:45;;;;;;;21.77;11.73;;;;;;;4.25;98.28;102532.00;4992238;28;20026;-94
2022/03/15 03:24:11;;;;;;;24.93;12.30;;;;;;;4.30;98.45;102536.78;4994084;28;20413;-96
2022/03/15 03:26:46;;;;;;;26.83;12.70;;;;;;;4.24;98.65;102533.00;4984558;28;20028;-93
2022/03/15 03:29:11;;;;;;;25.10;12.20;;;;;;;4.23;98.52;102526.03;4993966;28;20383;-93
2022/03/15 03:31:46;;;;;;;23.00;11.30;;;;;;;4.24;98.35;102528.53;4994183;28;20421;-94
2022/03/15 03:34:12;;;;;;;29.05;12.15;;;;;;;4.19;98.35;102528.22;4993903;28;20026;-92
2022/03/15 03:36:39;;;;;;;26.10;11.23;;;;;;;4.13;98.47;102517.47;4985943;28;20496;-94
2022/03/15 03:39:06;;;;;;;20.48;10.85;;;;;;;4.08;98.15;102518.81;4992540;28;20029;-93
2022/03/15 03:41:34;;;;;;;21.25;10.55;;;;;;;4.08;98.52;102516.16;4994114;28;20101;-94
2022/03/15 03:44:00;;;;;;;23.25;11.30;;;;;;;4.17;98.67;102530.19;4994618;28;20026;-94
2022/03/15 03:46:28;;;;;;;24.85;12.18;;;;;;;4.22;99.38;102534.97;4983164;28;20031;-95
2022/03/15 03:48:55;;;;;;;26.03;12.17;;;;;;;4.26;98.98;102530.19;4981136;28;20109;-96
2022/03/15 03:51:25;;;;;;;23.25;11.40;;;;;;;4.32;98.92;102540.94;4989088;28;20033;-92
2022/03/15 03:53:54;;;;;;;19.10;11.13;;;;;;;4.26;98.52;102531.00;4992748;28;20037;-94
2022/03/15 03:56:19;;;;;;;26.55;11.68;;;;;;;4.20;98.34;102516.59;5006029;28;20730;-94
2022/03/15 03:58:45;;;;;;;29.67;11.50;;;;;;;4.24;98.35;102527.69;4993946;28;20027;-92
2022/03/15 04:01:10;;;;;;;22.47;10.90;;;;;;;4.17;97.98;102511.63;4993942;28;20421;-92
2022/03/15 04:03:37;;;;;;;23.92;11.65;;;;;;;4.20;97.93;102513.13;4994111;28;20027;-94
2022/03/15 04:06:04;;;;;;;18.52;10.77;;;;;;;4.20;98.21;102518.44;4994773;28;20034;-95
2022/03/15 04:08:31;;;;;;;20.17;11.47;;;;;;;4.15;98.30;102510.97;5007528;28;20038;-95
2022/03/15 04:10:58;;;;;;;24.53;11.70;;;;;;;4.12;98.22;102516.63;5015566;28;20301;-93
2022/03/15 04:13:26;;;;;;;22.25;11.13;;;;;;;4.17;98.37;102532.84;5006638;28;20050;-94
2022/03/15 04:15:53;;;;;;;22.42;11.13;;;;;;;4.10;98.06;102521.31;5009896;28;20103;-94
2022/03/15 04:18:18;;;;;;;22.40;10.82;;;;;;;4.06;98.31;102512.03;4997939;28;20026;-95
2022/03/15 04:20:44;;;;;;;23.85;11.02;;;;;;;4.07;98.35;102518.97;4996208;28;20026;-95
2022/03/15 04:23:11;;;;;;;28.67;11.40;;;;;;;4.02;98.31;102519.47;4975956;28;20126;-94
2022/03/15 04:25:42;;;;;;;23.23;10.65;;;;;;;4.06;98.26;102528.75;4976527;28;20034;-95
2022/03/15 04:28:08;;;;;;;22.73;10.52;;;;;;;4.03;98.46;102525.63;4994544;28;20029;-94
2022/03/15 04:30:33;;;;;;;22.53;11.97;;;;;;;4.05;98.81;102528.94;5009542;28;20018;-96
2022/03/15 04:33:01;;;;;;;30.55;13.05;;;;;;;4.11;98.63;102533.53;5006788;28;20010;-96
2022/03/15 04:35:30;;;;;;;18.30;11.43;;;;;;;4.04;99.01;102514.03;5006083;28;20022;-95
2022/03/15 04:38:01;;;;;;;24.73;12.10;;;;;;;4.06;99.12;102526.09;5002572;28;20022;-95
2022/03/15 04:40:27;;;;;;;24.77;11.45;;;;;;;4.07;99.36;102526.94;5016417;28;20045;-93
2022/03/15 04:42:54;;;;;;;23.57;11.67;;;;;;;4.08;98.44;102525.94;5007289;28;20034;-95
2022/03/15 04:45:21;;;;;;;28.20;12.48;;;;;;;4.01;98.58;102509.06;4994568;28;20034;-94
2022/03/15 04:47:46;;;;;;;22.42;11.60;;;;;;;4.02;99.04;102503.56;4993082;28;20058;-94
2022/03/15 04:50:12;;;;;;;24.60;11.87;;;;;;;4.02;98.93;102503.56;4990022;28;20401;-95
2022/03/15 04:52:38;;;;;;;23.42;11.90;;;;;;;4.06;98.63;102520.78;4989091;28;20033;-94
2022/03/15 04:55:04;;;;;;;23.77;11.23;;;;;;;3.99;98.78;102508.41;4990007;28;20068;-93
2022/03/15 04:57:29;;;;;;;20.45;11.05;;;;;;;3.98;98.69;102512.88;4990431;28;20041;-95
2022/03/15 04:59:58;;;;;;;23.00;11.37;;;;;;;3.90;98.83;102495.19;4989220;28;20027;-95
2022/03/15 05:02:24;;;;;;;25.48;10.75;;;;;;;3.97;98.90;102513.88;4992564;28;20045;-93
2022/03/15 05:04:50;;;;;;;23.52;11.30;;;;;;;3.97;98.98;102505.94;4990718;28;20022;-93
2022/03/15 05:07:15;;;;;;;25.20;11.52;;;;;;;3.98;99.10;102504.09;4992716;28;20102;-91
2022/03/15 05:12:37;;;;;;;25.58;11.43;;;;;;;4.00;98.95;102505.59;4981025;28;21086;-93
2022/03/15 05:15:28;;;;;;;24.02;10.48;;;;;;;4.04;98.44;102506.06;4993418;28;20031;-94
2022/03/15 05:29:54;;;;;;;28.13;11.20;;;;;;;3.91;98.54;102485.38;5585452;23;20301;-92
2022/03/15 05:33:12;;;;;;;22.35;11.48;;;;;;;4.01;98.56;102501.94;4976717;28;20043;-93
2022/03/15 05:44:33;;;;;;;18.73;11.00;;;;;;;3.89;99.11;102472.31;4875871;29;20052;-92
2022/03/15 05:47:46;;;;;;;;;;;;;;;;;;;;;
2022/03/15 05:50:37;;;;;;;23.30;11.63;;;;;;;3.94;98.94;102485.84;5010810;23;20413;-93
2022/03/15 06:52:42;;;;;;;22.95;9.63;;;;;;;4.40;96.55;102447.97;5378265;23;20505;-85
2022/03/15 06:55:15;;;;;;;22.83;10.27;;;;;;;4.52;96.19;102459.00;5007088;28;20069;-88
2022/03/15 06:58:17;;;;;;;19.97;10.40;;;;;;;4.53;96.28;102450.03;4994943;28;20033;-85
2022/03/15 07:00:55;;;;;;;;;;;;;;;;;;;;;
2022/03/15 07:03:21;;;;;;;24.13;9.70;;;;;;;4.70;95.55;102447.25;4979560;28;20105;-86
2022/03/15 07:05:56;;;;;;;21.63;10.10;;;;;;;4.64;95.43;102432.84;4974913;28;20046;-87
2022/03/15 07:08:21;;;;;;;19.90;10.30;;;;;;;4.67;95.08;102431.66;4976662;28;20085;-86
2022/03/15 07:10:46;;;;;;;24.63;10.47;;;;;;;4.80;95.04;102450.50;4995160;28;20993;-86
2022/03/15 07:13:15;;;;;;;20.53;10.40;;;;;;;4.76;94.84;102438.56;4989634;28;20031;-85
2022/03/15 07:15:49;;;;;;;23.33;10.32;;;;;;;4.83;94.49;102441.34;5033518;23;20061;-84
2022/03/15 07:18:24;;;;;;;20.80;9.10;;;;;;;4.86;94.51;102438.31;5030964;28;20030;-85
2022/03/15 07:20:50;;;;;;;19.95;10.75;;;;;;;4.96;94.47;102451.34;5036298;28;20024;-84
2022/03/15 07:23:37;;;;;;;23.03;10.50;;;;;;;5.05;94.54;102444.94;5032098;28;20054;-85
2022/03/15 07:26:12;;;;;;;20.52;9.80;;;;;;;5.06;94.54;102429.84;5046547;28;20119;-85
2022/03/15 07:28:37;;;;;;;20.83;10.60;;;;;;;5.12;94.04;102431.75;5032511;28;20028;-86
2022/03/15 07:31:04;;;;;;;21.70;10.70;;;;;;;5.17;94.48;102432.03;5033630;28;20033;-86
2022/03/15 07:33:30;;;;;;;19.27;10.50;;;;;;;5.22;94.06;102434.16;5033282;28;20553;-85
2022/03/15 07:35:55;;;;;;;23.57;10.73;;;;;;;5.27;93.75;102437.09;5036856;28;20030;-85
2022/03/15 07:38:25;;;;;;;23.97;9.93;;;;;;;5.34;93.15;102435.38;5033433;28;20523;-86
2022/03/15 07:40:52;;;;;;;16.90;9.40;;;;;;;5.40;93.33;102436.47;5036661;28;20025;-86
2022/03/15 07:43:19;;;;;;;21.95;9.52;;;;;;;5.44;92.74;102429.78;5022538;28;20053;-85
2022/03/15 07:46:04;;;;;;;21.98;8.70;;;;;;;5.44;92.14;102427.13;5036814;28;20044;-86
2022/03/15 07:48:30;;;;;;;13.30;8.73;;;;;;;5.49;91.76;102419.38;5013053;28;20041;-86
2022/03/15 07:50:57;;;;;;;17.35;8.35;;;;;;;5.58;91.50;102428.09;4994574;28;20033;-87
2022/03/15 07:53:22;;;;;;;20.88;8.82;;;;;;;5.70;91.04;102436.44;5030289;28;20107;-86
2022/03/15 07:55:48;;;;;;;19.70;7.93;;;;;;;5.74;91.01;102432.41;5034213;28;20038;-87
2022/03/15 07:58:13;;;;;;;22.70;8.50;;;;;;;5.78;90.47;102439.00;5015174;28;20041;-86
2022/03/15 08:00:38;;;;;;;16.43;8.13;;;;;;;5.80;90.63;102428.16;5033439;28;20484;-86
2022/03/15 08:03:04;;;;;;;18.87;8.00;;;;;;;5.79;90.00;102411.41;5034307;28;20033;-86
2022/03/15 08:05:29;;;;;;;20.73;8.65;;;;;;;5.83;89.27;102420.66;5090672;23;20043;-94
2022/03/15 08:07:56;;;;;;;16.60;7.60;;;;;;;5.90;89.06;102420.72;5037415;28;20423;-95
2022/03/15 08:10:22;;;;;;;15.98;7.40;;;;;;;5.98;88.71;102423.25;5035986;28;20361;-94
2022/03/15 08:12:47;;;;;;;15.35;7.35;;;;;;;6.01;88.70;102427.44;5040485;28;20025;-94
2022/03/15 08:17:44;;;;;;;13.10;7.10;;;;;;;6.12;88.24;102416.28;4998137;28;20042;-93
2022/03/15 08:20:15;;;;;;;14.55;7.15;;;;;;;6.16;88.02;102419.38;4988188;28;20092;-94
2022/03/15 08:22:40;;;;;;;18.25;7.30;;;;;;;6.18;87.60;102412.88;5001697;28;20171;-93
2022/03/15 08:25:06;;;;;;;19.50;7.10;;;;;;;6.22;87.59;102403.47;5006529;28;20062;-94
2022/03/15 08:27:32;;;;;;;15.23;6.82;;;;;;;6.31;87.18;102409.50;4994657;28;20094;-94
2022/03/15 08:29:58;;;;;;;14.00;6.60;;;;;;;6.36;86.50;102406.28;4996965;28;20077;-95
2022/03/15 08:32:23;;;;;;;19.57;6.60;;;;;;;6.33;86.12;102388.03;4992953;28;20298;-93
2022/03/15 08:35:07;;;;;;;13.43;6.07;;;;;;;6.45;86.20;102393.66;4968043;28;20514;-94
2022/03/15 08:37:32;;;;;;;15.38;6.28;;;;;;;6.40;85.66;102383.56;4983255;28;20116;-93
2022/03/15 08:39:59;;;;;;;17.80;6.90;;;;;;;6.53;85.76;102390.03;4975826;28;20482;-94
2022/03/15 08:42:30;;;;;;;18.60;6.78;;;;;;;6.64;85.57;102395.69;4970008;28;20035;-96
2022/03/15 08:44:55;;;;;;;13.53;5.90;;;;;;;6.68;84.68;102393.44;4974419;28;20055;-93
2022/03/15 08:47:22;;;;;;;13.13;6.33;;;;;;;6.84;84.69;102404.84;4973983;28;21634;-96
2022/03/15 08:49:48;;;;;;;17.13;5.93;;;;;;;6.77;83.75;102376.28;4974062;28;20146;-92
2022/03/15 08:52:13;;;;;;;13.60;6.40;;;;;;;6.88;83.55;102385.59;4972046;28;20081;-92
2022/03/15 08:54:39;;;;;;;17.85;6.53;;;;;;;7.00;82.89;102385.88;4973355;28;20022;-93
2022/03/15 08:57:05;;;;;;;18.23;6.30;;;;;;;7.02;82.56;102386.50;4974965;28;20027;-91
2022/03/15 08:59:30;;;;;;;17.42;6.22;;;;;;;7.09;82.72;102386.53;4974656;28;20541;-93
2022/03/15 09:01:56;;;;;;;14.47;6.10;;;;;;;7.22;82.75;102391.94;4974369;28;20074;-92
2022/03/15 09:04:22;;;;;;;14.88;6.13;;;;;;;7.25;82.20;102383.56;4972702;28;20728;-92
2022/03/15 10:10:23;;;;;;;12.05;4.90;;;;;;;9.83;74.42;102374.31;4971262;28;20369;-87
2022/03/15 15:14:53;;;;;;;5.18;2.60;;;;;;;12.79;61.30;102134.16;5019828;28;20088;-96
2022/03/15 15:17:20;;;;;;;4.90;2.60;;;;;;;12.99;61.42;102144.50;5012499;28;20034;-92
2022/03/15 15:19:52;;;;;;;8.32;2.85;;;;;;;13.11;59.38;102147.13;5017441;28;20029;-93
2022/03/15 15:22:20;;;;;;;5.33;2.70;;;;;;;13.09;59.41;102151.09;5026259;28;20014;-94
2022/03/15 15:24:46;;;;;;;5.73;2.47;;;;;;;13.10;59.96;102152.75;5012231;28;20300;-93
2022/03/15 15:27:13;;;;;;;8.77;2.63;;;;;;;13.19;60.60;102154.00;5007749;28;20259;-94
2022/03/15 15:29:39;;;;;;;7.57;2.92;;;;;;;13.24;59.67;102156.75;4980130;28;20036;-93
2022/03/15 15:32:24;;;;;;;7.47;3.17;;;;;;;13.41;60.98;102166.78;5004893;23;20037;-93
2022/03/15 15:34:52;;;;;;;6.30;3.22;;;;;;;13.19;59.06;102137.84;5016573;28;20483;-94
2022/03/15 15:37:33;;;;;;;5.95;2.83;;;;;;;13.17;59.99;102127.31;4992472;28;20038;-94
2022/03/15 15:40:18;;;;;;;8.68;2.90;;;;;;;13.23;60.47;102148.94;5017745;28;20026;-95
2022/03/15 15:42:44;;;;;;;5.35;2.65;;;;;;;13.11;59.74;102132.84;5020885;28;20053;-95
2022/03/15 15:45:12;;;;;;;6.63;2.83;;;;;;;13.10;58.96;102137.44;5036219;28;20088;-96
2022/03/15 15:47:54;;;;;;;6.60;2.95;;;;;;;13.11;60.08;102130.16;5033947;28;20109;-96
2022/03/15 15:50:29;;;;;;;8.60;2.70;;;;;;;12.98;59.70;102125.91;5031041;28;20018;-95
2022/03/15 15:53:05;;;;;;;8.73;3.13;;;;;;;12.91;60.85;102136.81;5031420;28;20045;-96
2022/03/15 15:55:36;;;;;;;4.88;2.65;;;;;;;12.71;60.68;102126.50;5032615;28;20032;-95
2022/03/15 15:58:05;;;;;;;4.50;2.95;;;;;;;12.62;61.04;102136.81;5028536;28;20080;-93
2022/03/15 16:00:36;;;;;;;4.30;2.78;;;;;;;12.36;61.19;102119.38;5013347;28;20081;-93
2022/03/15 16:03:11;;;;;;;5.22;2.90;;;;;;;12.27;61.48;102130.47;5019786;28;20018;-94
2022/03/15 16:05:39;;;;;;;7.85;2.95;;;;;;;12.11;62.19;102139.28;5020270;28;20022;-93
2022/03/15 16:08:04;;;;;;;5.07;3.00;;;;;;;11.94;63.13;102136.47;5023142;28;20018;-93
2022/03/15 16:10:30;;;;;;;7.60;3.20;;;;;;;11.80;62.59;102128.63;5012137;28;20288;-92
2022/03/15 16:12:55;;;;;;;6.15;2.97;;;;;;;11.57;63.24;102128.66;5016664;28;20026;-91
2022/03/15 16:15:23;;;;;;;8.63;3.20;;;;;;;11.42;64.48;102143.31;5015069;28;20498;-92
2022/03/15 16:17:56;;;;;;;8.20;3.22;;;;;;;11.30;65.34;102145.19;5017097;28;20428;-92
2022/03/15 16:20:24;;;;;;;6.07;3.30;;;;;;;11.14;65.50;102136.75;5019062;28;20029;-93
2022/03/15 16:22:56;;;;;;;7.57;3.43;;;;;;;11.05;66.23;102147.00;5038552;23;20312;-96
2022/03/15 16:25:23;;;;;;;5.28;3.30;;;;;;;10.84;66.67;102132.22;5019981;28;20049;-96
2022/03/15 16:28:00;;;;;;;7.47;3.47;;;;;;;10.69;66.72;102118.38;5018085;28;20072;-96
2022/03/15 16:30:27;;;;;;;9.00;3.30;;;;;;;10.59;67.29;102135.03;5008752;28;20299;-96
2022/03/15 16:32:53;;;;;;;4.07;3.30;;;;;;;10.45;68.07;102135.19;5015271;28;20062;-95
2022/03/15 16:35:22;;;;;;;5.70;3.37;;;;;;;10.41;68.88;102144.72;4988792;28;20023;-95
2022/03/15 16:37:49;;;;;;;6.05;3.30;;;;;;;10.27;69.60;102138.69;4989915;28;20023;-94
2022/03/15 16:40:18;;;;;;;4.70;3.70;;;;;;;10.03;70.02;102110.91;5003852;28;20034;-94
2022/03/15 16:42:44;;;;;;;4.70;3.30;;;;;;;10.05;70.74;102135.59;4966123;28;20117;-92
2022/03/15 16:45:11;;;;;;;6.27;3.27;;;;;;;9.93;70.94;102132.03;4991983;28;20022;-95
2022/03/15 16:47:36;;;;;;;5.80;3.70;;;;;;;9.82;71.80;102131.72;4997697;28;20286;-94
2022/03/15 16:50:02;;;;;;;7.30;3.80;;;;;;;9.76;72.14;102134.47;4993770;28;20141;-91
2022/03/15 16:52:30;;;;;;;6.60;3.90;;;;;;;9.69;72.45;102137.19;4992002;28;20031;-92
2022/03/15 16:54:55;;;;;;;8.27;4.55;;;;;;;9.65;72.26;102139.47;4981932;28;20527;-93
2022/03/15 16:57:28;;;;;;;5.88;4.57;;;;;;;9.49;72.85;102122.13;4979906;28;20054;-93
2022/03/15 17:00:07;;;;;;;7.20;4.77;;;;;;;9.59;73.04;102143.03;4989525;28;20034;-95
2022/03/15 17:02:33;;;;;;;8.97;4.17;;;;;;;9.50;73.29;102145.16;4991441;28;20289;-93
2022/03/15 17:07:42;;;;;;;5.53;3.77;;;;;;;9.36;74.15;102136.44;4992583;28;20081;-92
2022/03/15 17:10:12;;;;;;;9.00;3.90;;;;;;;9.34;74.04;102151.03;4967463;28;20286;-92
2022/03/15 17:12:37;;;;;;;6.57;4.22;;;;;;;9.31;74.54;102160.31;4993740;28;20178;-94
2022/03/15 17:15:10;;;;;;;6.43;3.70;;;;;;;9.13;74.83;102147.69;4993666;28;20418;-96
2022/03/15 17:17:35;;;;;;;8.27;4.00;;;;;;;9.10;75.14;102158.81;4997435;28;20096;-92
2022/03/15 17:20:03;;;;;;;8.30;5.47;;;;;;;8.98;75.49;102153.34;4984392;28;20457;-94
2022/03/15 17:22:28;;;;;;;17.77;7.82;;;;;;;8.95;75.72;102161.78;4983851;28;20030;-93
2022/03/15 17:25:02;;;;;;;8.50;5.47;;;;;;;8.88;75.91;102169.00;4986961;28;20027;-94
2022/03/15 17:27:31;;;;;;;7.73;5.13;;;;;;;8.81;76.48;102166.38;4983026;28;20303;-94
2022/03/15 17:30:07;;;;;;;9.95;5.57;;;;;;;8.71;76.40;102166.81;4994091;28;20105;-95
2022/03/15 17:32:33;;;;;;;14.70;5.28;;;;;;;8.58;76.97;102165.03;4994500;28;20132;-94
2022/03/15 17:35:02;;;;;;;8.50;5.40;;;;;;;8.48;77.75;102170.00;4987978;28;20019;-92
2022/03/15 17:37:31;;;;;;;12.40;5.50;;;;;;;8.41;78.10;102170.00;4995318;28;20090;-94
2022/03/15 17:39:56;;;;;;;8.03;5.10;;;;;;;8.31;78.10;102165.09;4991281;28;20294;-95
2022/03/15 17:42:23;;;;;;;8.70;6.05;;;;;;;8.23;79.55;102177.84;5008881;28;20041;-94
2022/03/15 17:44:52;;;;;;;13.97;7.13;;;;;;;8.13;79.26;102172.94;4991104;28;20511;-96
2022/03/15 17:47:21;;;;;;;15.20;6.90;;;;;;;8.08;79.44;102173.56;4980580;28;20034;-95
2022/03/15 17:49:55;;;;;;;11.73;6.82;;;;;;;8.03;79.66;102176.84;4963620;28;20118;-95
2022/03/15 17:52:21;;;;;;;10.30;7.35;;;;;;;7.91;79.99;102167.81;4976880;28;20031;-94
2022/03/15 17:54:48;;;;;;;14.13;7.27;;;;;;;7.84;79.87;102169.69;4995618;28;20034;-91
2022/03/15 17:57:19;;;;;;;15.75;7.00;;;;;;;7.76;80.12;102172.56;4984920;28;20094;-94
2022/03/15 17:59:54;;;;;;;11.38;6.50;;;;;;;7.67;80.24;102182.63;4978991;28;20023;-95
2022/03/15 18:02:20;;;;;;;12.75;6.80;;;;;;;7.58;81.26;102184.66;4966008;28;20018;-94
2022/03/15 18:04:55;;;;;;;16.60;5.97;;;;;;;7.51;81.16;102184.66;4989152;28;20098;-95
2022/03/15 18:07:21;;;;;;;14.05;6.95;;;;;;;7.43;81.42;102187.50;4975680;28;20041;-94
2022/03/15 18:09:46;;;;;;;13.80;8.13;;;;;;;7.36;81.75;102190.16;4985685;28;20026;-91
2022/03/15 18:12:12;;;;;;;12.52;8.20;;;;;;;7.33;82.02;102201.22;4983204;28;20035;-91
2022/03/15 18:14:41;;;;;;;14.80;8.10;;;;;;;7.30;82.67;102206.16;4988172;28;20026;-95
2022/03/15 18:17:11;;;;;;;16.27;7.38;;;;;;;7.28;82.70;102203.72;4990725;28;20032;-93
2022/03/15 18:19:36;;;;;;;16.80;7.68;;;;;;;7.22;82.72;102201.84;4966948;28;20065;-91
2022/03/15 18:22:02;;;;;;;11.57;7.00;;;;;;;7.19;82.99;102210.22;4992984;28;20030;-93
2022/03/15 18:24:27;;;;;;;10.93;7.43;;;;;;;7.12;83.51;102211.03;4999347;28;20041;-91
2022/03/15 18:26:53;;;;;;;12.27;6.73;;;;;;;7.08;83.85;102220.47;4994106;28;20432;-93
2022/03/15 18:29:21;;;;;;;10.00;6.38;;;;;;;7.05;84.44;102220.03;4966948;28;20128;-92
2022/03/15 18:31:47;;;;;;;9.90;6.57;;;;;;;7.00;84.82;102220.63;4976098;28;20030;-92
2022/03/15 18:34:13;;;;;;;12.97;6.83;;;;;;;6.95;nan;102218.56;4997218;28;20033;-93
2022/03/15 18:36:39;;;;;;;10.15;6.75;;;;;;;6.94;84.53;102213.41;4976393;28;20069;-90
2022/03/15 18:39:06;;;;;;;18.00;7.38;;;;;;;6.95;84.84;102213.25;4998123;28;20026;-92
2022/03/15 18:41:33;;;;;;;11.40;7.40;;;;;;;6.95;85.98;102210.56;4990303;28;20034;-90
2022/03/15 18:43:59;;;;;;;11.48;7.38;;;;;;;6.96;85.89;102206.88;4982946;28;20054;-93
2022/03/15 18:46:40;;;;;;;10.60;6.82;;;;;;;7.00;85.44;102207.31;4957306;28;20199;-92
2022/03/15 18:49:11;;;;;;;12.60;7.32;;;;;;;7.04;86.16;102207.72;4990088;28;20044;-90
2022/03/15 18:51:39;;;;;;;11.70;7.22;;;;;;;7.05;85.78;102210.19;4988380;28;20034;-92
2022/03/15 18:54:05;;;;;;;11.70;7.23;;;;;;;7.04;85.94;102205.06;4997479;28;20026;-91
2022/03/15 18:56:31;;;;;;;11.30;7.97;;;;;;;7.05;85.72;102210.19;5000513;28;20293;-91
2022/03/15 18:58:56;;;;;;;12.25;8.07;;;;;;;7.01;85.50;102198.28;4994362;28;20027;-90
2022/03/15 19:01:25;;;;;;;17.93;8.20;;;;;;;6.97;85.59;102210.34;4980000;28;20423;-91
2022/03/15 19:03:53;;;;;;;15.55;8.10;;;;;;;6.96;85.94;102214.03;4984927;28;20034;-91
2022/03/15 19:06:21;;;;;;;10.77;8.00;;;;;;;6.89;85.76;102211.34;4988507;28;20038;-92
2022/03/15 19:08:47;;;;;;;19.13;8.18;;;;;;;6.85;86.02;102226.09;4997094;28;20037;-91